Time;durP1;ratioP1;P1;durP2;ratioP2;P2;SDS_P1;SDS_P2;PMS_P1;PMS_P2;Temp;Humidity;BMP_temperature;BMP_pressure;BME280_temperature;BME280_humidity;BME280_pressure;Samples;Min_cycle;Max_cycle;Signal;HPM_P1;HPM_P2
2021/09/27 00:00:44;;;;;;;15.70;9.23;;;17.80;97.30;;;;;;5016133;28;20460;-82
2021/09/27 00:03:10;;;;;;;17.00;9.97;;;17.80;97.30;;;;;;5017372;28;20202;-82
2021/09/27 00:05:36;;;;;;;13.37;8.77;;;17.70;97.30;;;;;;5017010;28;20412;-82
2021/09/27 00:08:02;;;;;;;16.00;9.63;;;17.70;97.30;;;;;;5017109;28;20412;-82
2021/09/27 00:10:50;;;;;;;24.50;10.53;;;17.70;97.30;;;;;;5018011;28;20467;-82
2021/09/27 00:13:17;;;;;;;17.63;11.07;;;17.70;97.30;;;;;;5016402;28;20498;-81
2021/09/27 00:15:46;;;;;;;17.80;10.40;;;17.80;97.30;;;;;;5016612;28;20447;-83
2021/09/27 00:18:13;;;;;;;20.83;11.00;;;17.90;97.30;;;;;;5016228;28;20921;-82
2021/09/27 00:20:43;;;;;;;16.17;10.17;;;18.00;97.30;;;;;;5032740;28;21118;-82
2021/09/27 00:23:10;;;;;;;11.63;7.50;;;18.10;97.30;;;;;;5014321;28;20432;-80
2021/09/27 00:25:36;;;;;;;14.63;5.97;;;18.30;97.30;;;;;;5014794;28;20413;-81
2021/09/27 00:28:03;;;;;;;8.70;4.97;;;18.40;97.30;;;;;;5014718;28;21108;-82
2021/09/27 00:30:28;;;;;;;8.27;4.63;;;18.60;97.30;;;;;;5014731;28;20827;-82
2021/09/27 00:32:54;;;;;;;9.93;4.90;;;18.70;97.30;;;;;;5014423;28;20451;-84
2021/09/27 00:35:23;;;;;;;8.97;5.20;;;18.80;97.30;;;;;;5013531;28;20197;-82
2021/09/27 00:37:49;;;;;;;10.90;6.10;;;18.80;97.30;;;;;;5013841;28;20181;-82
2021/09/27 00:40:19;;;;;;;14.80;6.60;;;18.80;97.30;;;;;;5014445;28;20431;-82
2021/09/27 00:42:46;;;;;;;14.80;7.13;;;18.80;97.30;;;;;;5014225;28;20895;-83
2021/09/27 00:45:13;;;;;;;10.90;6.80;;;18.70;97.30;;;;;;5014823;28;20455;-84
2021/09/27 00:47:39;;;;;;;14.10;7.30;;;18.60;97.30;;;;;;5014351;28;20420;-83
2021/09/27 00:50:07;;;;;;;18.80;8.40;;;18.50;97.30;;;;;;5014464;28;20952;-81
2021/09/27 00:52:33;;;;;;;18.07;8.43;;;18.50;97.30;;;;;;5013704;28;20181;-82
2021/09/27 00:54:59;;;;;;;17.40;9.60;;;18.30;97.30;;;;;;5016178;28;20463;-82
2021/09/27 00:57:26;;;;;;;18.27;9.80;;;18.30;97.30;;;;;;5013813;28;20555;-82
2021/09/27 00:59:55;;;;;;;18.83;9.30;;;18.20;97.30;;;;;;5013133;28;20916;-83
2021/09/27 01:02:23;;;;;;;24.63;9.93;;;18.10;97.30;;;;;;5029515;28;20964;-83
2021/09/27 01:04:49;;;;;;;15.97;8.27;;;18.00;97.30;;;;;;5013274;28;20436;-86
2021/09/27 01:07:45;;;;;;;19.63;8.70;;;17.90;97.30;;;;;;5013730;28;20416;-84
2021/09/27 01:10:35;;;;;;;15.60;7.30;;;17.80;97.30;;;;;;5013561;28;20920;-84
2021/09/27 01:13:00;;;;;;;24.77;7.67;;;17.80;97.30;;;;;;5029447;28;20431;-84
2021/09/27 01:15:48;;;;;;;22.47;7.57;;;17.70;97.30;;;;;;5014455;28;20467;-82
2021/09/27 01:18:44;;;;;;;18.10;7.77;;;17.70;97.30;;;;;;5028133;28;20719;-79
2021/09/27 01:21:19;;;;;;;16.13;6.00;;;17.70;97.30;;;;;;5029734;28;20400;-82
2021/09/27 01:24:06;;;;;;;16.87;7.13;;;17.70;97.30;;;;;;5028604;28;20427;-81
2021/09/27 01:27:11;;;;;;;15.77;5.97;;;17.60;97.30;;;;;;5029566;28;20420;-82
2021/09/27 01:29:42;;;;;;;13.90;7.27;;;17.50;97.30;;;;;;5004833;28;20432;-81
2021/09/27 01:32:29;;;;;;;8.13;4.10;;;17.50;97.30;;;;;;5032201;28;20422;-82
2021/09/27 01:35:29;;;;;;;15.80;6.03;;;17.50;97.30;;;;;;5015530;28;20558;-82
2021/09/27 01:38:22;;;;;;;10.03;4.40;;;17.50;97.30;;;;;;5004691;28;20423;-88
2021/09/27 01:41:19;;;;;;;12.50;4.33;;;17.50;97.30;;;;;;5032985;28;20511;-86
2021/09/27 01:44:12;;;;;;;17.90;4.93;;;17.40;97.30;;;;;;5017655;28;20436;-87
2021/09/27 01:46:48;;;;;;;8.00;4.27;;;17.40;97.30;;;;;;5016769;28;20428;-88
2021/09/27 01:49:36;;;;;;;5.60;3.00;;;17.40;97.30;;;;;;5016376;28;20446;-87
2021/09/27 01:52:06;;;;;;;8.07;4.43;;;17.40;97.30;;;;;;5017389;28;20392;-86
2021/09/27 01:54:56;;;;;;;10.33;4.03;;;17.40;97.30;;;;;;5017662;28;20567;-87
2021/09/27 01:57:53;;;;;;;7.73;3.87;;;17.30;97.30;;;;;;5015931;28;20431;-87
2021/09/27 02:00:25;;;;;;;9.57;4.87;;;17.40;97.30;;;;;;5032587;28;20460;-87
2021/09/27 02:03:13;;;;;;;9.37;4.60;;;17.40;97.30;;;;;;5016645;28;20522;-87
2021/09/27 02:05:55;;;;;;;9.57;4.63;;;17.40;97.30;;;;;;5032994;28;20423;-87
2021/09/27 02:08:45;;;;;;;6.97;4.33;;;17.40;97.30;;;;;;5016130;28;20404;-87
2021/09/27 02:11:31;;;;;;;10.30;4.27;;;17.40;97.30;;;;;;5017113;28;20428;-87
2021/09/27 02:14:18;;;;;;;9.80;5.43;;;17.40;97.30;;;;;;5015664;28;20455;-87
2021/09/27 02:17:08;;;;;;;7.70;4.17;;;17.50;97.30;;;;;;5015919;28;20507;-87
2021/09/27 02:19:57;;;;;;;8.57;5.10;;;17.50;97.30;;;;;;5015992;28;20408;-87
2021/09/27 02:22:52;;;;;;;9.30;3.93;;;17.60;97.30;;;;;;5015534;28;20471;-86
2021/09/27 02:25:38;;;;;;;6.30;3.57;;;17.50;97.30;;;;;;5015189;28;20416;-87
2021/09/27 02:28:07;;;;;;;10.30;5.00;;;17.50;97.30;;;;;;5015772;28;20442;-87
2021/09/27 02:30:43;;;;;;;7.30;4.37;;;17.50;97.30;;;;;;5016792;28;20920;-87
2021/09/27 02:33:34;;;;;;;12.63;5.07;;;17.50;97.30;;;;;;5015376;28;20440;-87
2021/09/27 02:36:08;;;;;;;8.90;4.20;;;17.60;97.30;;;;;;5015413;28;20869;-87
2021/09/27 02:38:49;;;;;;;10.57;4.50;;;17.60;97.30;;;;;;5015366;28;20492;-87
2021/09/27 02:41:23;;;;;;;11.07;4.67;;;17.50;97.30;;;;;;5016088;28;20400;-87
2021/09/27 02:43:48;;;;;;;8.37;4.53;;;17.50;97.30;;;;;;5015268;28;20969;-87
2021/09/27 02:46:15;;;;;;;7.17;4.20;;;17.50;97.30;;;;;;5015305;28;20420;-87
2021/09/27 02:48:47;;;;;;;8.33;4.33;;;17.50;97.30;;;;;;5015024;28;20173;-87
2021/09/27 02:51:13;;;;;;;13.17;5.00;;;17.50;97.30;;;;;;5015482;28;20405;-88
2021/09/27 02:53:41;;;;;;;11.03;4.83;;;17.50;97.30;;;;;;5015184;28;20460;-88
2021/09/27 02:56:25;;;;;;;10.07;4.30;;;17.50;97.30;;;;;;5015160;28;20412;-87
2021/09/27 02:59:19;;;;;;;9.50;4.43;;;17.50;97.30;;;;;;5016203;28;20432;-87
2021/09/27 03:02:14;;;;;;;11.33;5.90;;;17.40;97.30;;;;;;5014735;28;20451;-87
2021/09/27 03:05:24;;;;;;;12.57;5.40;;;17.40;97.30;;;;;;5013965;28;20470;-87
2021/09/27 03:08:18;;;;;;;10.80;4.90;;;17.40;97.30;;;;;;5014924;28;20447;-85
2021/09/27 03:11:03;;;;;;;14.03;5.30;;;17.40;97.30;;;;;;5014764;28;20419;-86
2021/09/27 03:13:57;;;;;;;13.83;5.60;;;17.40;97.30;;;;;;5014554;28;20440;-86
2021/09/27 03:16:35;;;;;;;14.40;6.60;;;17.40;97.30;;;;;;5014556;28;20440;-86
2021/09/27 03:19:30;;;;;;;20.80;6.57;;;17.30;97.30;;;;;;5014078;28;20770;-86
2021/09/27 03:21:55;;;;;;;16.97;6.80;;;17.30;97.30;;;;;;5015682;28;20400;-86
2021/09/27 03:25:02;;;;;;;17.73;6.33;;;17.30;97.30;;;;;;5014291;28;20440;-87
2021/09/27 03:27:34;;;;;;;12.83;5.97;;;17.40;97.30;;;;;;5013808;28;20284;-87
2021/09/27 03:30:18;;;;;;;13.20;6.67;;;17.40;97.30;;;;;;5014392;28;21313;-86
2021/09/27 03:32:57;;;;;;;16.30;7.30;;;17.50;97.30;;;;;;5014280;28;20571;-87
2021/09/27 03:35:29;;;;;;;15.03;6.83;;;17.50;97.30;;;;;;5014559;28;20474;-87
2021/09/27 03:38:06;;;;;;;17.83;7.97;;;17.50;97.30;;;;;;5014916;28;20420;-86
2021/09/27 03:40:41;;;;;;;22.60;9.00;;;17.50;97.30;;;;;;5014391;28;20408;-87
2021/09/27 03:43:44;;;;;;;18.20;8.43;;;17.50;97.30;;;;;;5014306;28;20428;-86
2021/09/27 03:46:26;;;;;;;22.37;8.00;;;17.50;97.30;;;;;;5014186;28;20416;-86
2021/09/27 03:49:03;;;;;;;20.23;8.40;;;17.60;97.30;;;;;;5014118;28;20424;-87
2021/09/27 03:51:57;;;;;;;22.30;9.43;;;17.50;97.30;;;;;;5013301;28;20401;-87
2021/09/27 03:54:33;;;;;;;17.17;8.10;;;17.60;97.30;;;;;;5013496;28;20460;-87
2021/09/27 03:57:22;;;;;;;22.20;8.47;;;17.60;97.30;;;;;;5014294;28;20404;-87
2021/09/27 04:00:13;;;;;;;18.70;8.07;;;17.60;97.30;;;;;;5014016;28;20400;-87
2021/09/27 04:02:49;;;;;;;13.77;7.13;;;17.60;97.30;;;;;;5014107;28;20413;-87
2021/09/27 04:05:56;;;;;;;17.80;8.40;;;17.60;97.30;;;;;;5014373;28;20926;-86
2021/09/27 04:08:46;;;;;;;18.60;8.00;;;17.60;97.30;;;;;;5015018;28;20949;-88
2021/09/27 04:11:48;;;;;;;16.80;6.60;;;17.60;97.30;;;;;;5015762;28;20420;-87
2021/09/27 04:14:57;;;;;;;17.93;8.03;;;17.70;97.30;;;;;;5014191;28;20513;-87
2021/09/27 04:17:32;;;;;;;19.23;8.33;;;17.70;97.30;;;;;;5025952;28;20930;-87
2021/09/27 04:20:28;;;;;;;21.17;8.80;;;17.70;97.30;;;;;;5014129;28;20964;-87
2021/09/27 04:23:22;;;;;;;17.60;7.57;;;17.70;97.30;;;;;;5012535;28;20482;-87
2021/09/27 04:25:55;;;;;;;19.37;8.37;;;17.70;97.30;;;;;;5013349;28;20440;-87
2021/09/27 04:28:40;;;;;;;17.53;7.50;;;17.70;97.30;;;;;;5013922;28;20420;-86
2021/09/27 04:31:24;;;;;;;15.37;7.50;;;17.70;97.30;;;;;;5013707;28;20435;-87
2021/09/27 04:34:08;;;;;;;18.17;7.17;;;17.70;97.30;;;;;;5013557;28;20467;-87
2021/09/27 04:36:38;;;;;;;14.10;7.30;;;17.70;97.30;;;;;;5013182;28;20432;-86
2021/09/27 04:39:18;;;;;;;20.17;9.20;;;17.70;97.30;;;;;;5015212;28;20426;-86
2021/09/27 04:42:29;;;;;;;19.03;8.47;;;17.60;97.30;;;;;;5017392;28;20419;-86
2021/09/27 04:45:06;;;;;;;19.83;9.77;;;17.60;97.30;;;;;;5015946;28;20459;-86
2021/09/27 04:48:16;;;;;;;20.97;8.63;;;17.60;97.30;;;;;;5016634;28;20424;-86
2021/09/27 04:51:14;;;;;;;20.53;10.63;;;17.50;97.30;;;;;;5017732;28;20416;-87
2021/09/27 04:53:53;;;;;;;22.30;10.53;;;17.50;97.30;;;;;;5033596;28;20463;-87
2021/09/27 04:57:03;;;;;;;26.23;11.03;;;17.40;97.30;;;;;;5016949;28;20423;-86
2021/09/27 04:59:48;;;;;;;24.83;9.37;;;17.40;97.30;;;;;;5018007;28;20432;-86
2021/09/27 05:02:35;;;;;;;23.63;10.70;;;17.40;97.30;;;;;;5017105;28;20505;-86
2021/09/27 05:05:41;;;;;;;21.77;9.10;;;17.40;97.30;;;;;;5022237;28;20448;-86
2021/09/27 05:08:10;;;;;;;19.60;10.63;;;17.40;97.30;;;;;;5019957;28;20408;-87
2021/09/27 05:10:39;;;;;;;22.13;9.80;;;17.40;97.30;;;;;;5020655;28;20416;-87
2021/09/27 05:13:23;;;;;;;20.83;9.93;;;17.40;97.30;;;;;;5018665;28;20470;-87
2021/09/27 05:16:29;;;;;;;28.53;10.20;;;17.40;97.30;;;;;;5018116;28;20470;-87
2021/09/27 05:19:48;;;;;;;21.17;9.63;;;17.40;97.30;;;;;;5019263;28;20412;-86
2021/09/27 05:22:41;;;;;;;18.73;9.50;;;17.30;97.30;;;;;;5009844;28;20423;-87
2021/09/27 05:25:19;;;;;;;21.23;8.73;;;17.30;97.30;;;;;;5017721;28;20933;-87
2021/09/27 05:28:21;;;;;;;16.77;8.50;;;17.30;97.30;;;;;;5017168;28;20477;-87
2021/09/27 05:30:53;;;;;;;18.13;9.13;;;17.30;97.30;;;;;;5017132;28;20919;-87
2021/09/27 05:33:28;;;;;;;25.13;9.40;;;17.40;97.30;;;;;;5017006;28;20438;-87
2021/09/27 05:36:05;;;;;;;20.70;8.67;;;17.30;97.30;;;;;;5016550;28;20426;-86
2021/09/27 05:38:59;;;;;;;20.20;9.07;;;17.30;97.30;;;;;;5016898;28;20527;-87
2021/09/27 05:41:33;;;;;;;22.37;10.20;;;17.30;97.30;;;;;;5016591;28;20416;-87
2021/09/27 05:44:35;;;;;;;22.87;9.87;;;17.30;97.30;;;;;;5032835;28;20447;-86
2021/09/27 05:47:31;;;;;;;21.97;8.30;;;17.30;97.30;;;;;;5016163;28;20408;-86
2021/09/27 05:50:12;;;;;;;19.77;9.20;;;17.30;97.30;;;;;;5016350;28;20903;-86
2021/09/27 05:53:00;;;;;;;19.53;8.97;;;17.20;97.30;;;;;;5016342;28;20430;-86
2021/09/27 05:55:43;;;;;;;25.17;10.23;;;17.20;97.30;;;;;;5016250;28;20487;-86
2021/09/27 05:58:15;;;;;;;25.07;9.70;;;17.20;97.30;;;;;;5016786;28;20416;-86
2021/09/27 06:01:16;;;;;;;23.93;10.20;;;17.20;97.30;;;;;;5016355;28;20468;-86
2021/09/27 06:04:09;;;;;;;26.03;10.80;;;17.20;97.30;;;;;;5016984;28;20451;-86
2021/09/27 06:06:41;;;;;;;23.20;9.90;;;17.20;97.30;;;;;;5016974;28;20425;-87
2021/09/27 06:09:25;;;;;;;22.17;9.90;;;17.20;97.30;;;;;;5017767;28;20427;-87
2021/09/27 06:12:09;;;;;;;30.30;10.17;;;17.20;97.30;;;;;;5017166;28;20907;-86
2021/09/27 06:14:35;;;;;;;22.00;10.30;;;17.10;97.30;;;;;;5016280;28;20472;-86
2021/09/27 06:17:38;;;;;;;21.40;10.30;;;17.20;97.30;;;;;;5017264;28;20980;-86
2021/09/27 06:20:20;;;;;;;26.80;11.30;;;17.20;97.30;;;;;;5015760;28;20447;-86
2021/09/27 06:23:04;;;;;;;25.10;10.80;;;17.20;97.30;;;;;;4998384;28;20447;-86
2021/09/27 06:25:51;;;;;;;32.10;10.70;;;17.20;97.30;;;;;;5014793;28;20417;-86
2021/09/27 06:28:48;;;;;;;25.00;11.10;;;17.20;97.30;;;;;;4998094;28;20985;-86
2021/09/27 06:31:23;;;;;;;26.20;11.10;;;17.20;97.30;;;;;;5014201;28;20425;-86
2021/09/27 06:34:04;;;;;;;32.13;12.20;;;17.20;97.30;;;;;;4998286;28;20810;-86
2021/09/27 06:36:33;;;;;;;24.97;10.07;;;17.20;97.30;;;;;;4998848;28;20559;-87
2021/09/27 06:39:03;;;;;;;29.97;10.90;;;17.20;97.30;;;;;;4998618;28;20922;-86
2021/09/27 06:41:32;;;;;;;24.60;10.30;;;17.20;97.30;;;;;;4997586;28;20440;-87
2021/09/27 06:43:58;;;;;;;25.00;10.57;;;17.20;97.30;;;;;;4998349;28;20445;-87
2021/09/27 06:46:23;;;;;;;23.80;10.60;;;17.20;97.30;;;;;;4997691;28;20421;-87
2021/09/27 06:48:49;;;;;;;22.93;9.10;;;17.20;97.30;;;;;;4998550;28;20185;-86
2021/09/27 06:51:15;;;;;;;28.60;11.17;;;17.30;97.30;;;;;;4998207;28;20185;-86
2021/09/27 06:53:41;;;;;;;21.80;9.37;;;17.30;97.30;;;;;;4998797;28;20472;-87
2021/09/27 06:56:07;;;;;;;24.07;9.33;;;17.30;97.30;;;;;;4998165;28;20413;-86
2021/09/27 06:58:33;;;;;;;27.50;11.00;;;17.30;97.30;;;;;;4998293;28;20177;-86
2021/09/27 07:00:59;;;;;;;23.63;10.07;;;17.30;97.30;;;;;;4997536;28;20253;-86
2021/09/27 07:03:25;;;;;;;22.97;10.17;;;17.30;97.30;;;;;;4998514;28;20441;-87
2021/09/27 07:05:51;;;;;;;23.53;9.07;;;17.30;97.30;;;;;;4999035;28;20182;-87
2021/09/27 07:08:19;;;;;;;30.67;11.20;;;17.40;97.30;;;;;;4998888;28;20428;-87
2021/09/27 07:10:46;;;;;;;31.43;10.50;;;17.40;97.30;;;;;;4997779;28;20463;-86
2021/09/27 07:13:14;;;;;;;28.37;9.93;;;17.40;97.30;;;;;;4998099;28;20445;-86
2021/09/27 07:15:40;;;;;;;30.37;11.93;;;17.50;97.30;;;;;;4997457;28;20472;-86
2021/09/27 07:18:05;;;;;;;21.77;9.70;;;17.50;97.30;;;;;;4998418;28;20428;-86
2021/09/27 07:20:31;;;;;;;26.80;11.30;;;17.40;97.30;;;;;;4998244;28;20421;-86
2021/09/27 07:22:57;;;;;;;22.70;10.43;;;17.40;97.30;;;;;;4998035;28;20197;-86
2021/09/27 07:25:25;;;;;;;23.80;10.13;;;17.40;97.30;;;;;;4997341;28;20698;-86
2021/09/27 07:27:51;;;;;;;23.07;9.30;;;17.40;97.30;;;;;;4996108;28;20472;-86
2021/09/27 07:30:17;;;;;;;20.07;8.60;;;17.40;97.30;;;;;;4996633;28;20508;-84
2021/09/27 07:32:43;;;;;;;18.80;8.83;;;17.40;97.30;;;;;;4998284;28;20268;-86
2021/09/27 07:35:11;;;;;;;19.13;8.90;;;17.40;97.30;;;;;;4998728;28;20460;-86
2021/09/27 07:37:40;;;;;;;22.07;9.80;;;17.40;97.30;;;;;;4999159;28;20786;-86
2021/09/27 07:40:09;;;;;;;20.47;9.23;;;17.40;97.30;;;;;;4999910;28;20949;-87
2021/09/27 07:42:35;;;;;;;21.70;8.30;;;17.50;97.30;;;;;;4998827;28;20421;-86
2021/09/27 07:45:01;;;;;;;18.13;8.03;;;17.50;97.30;;;;;;4999530;28;20421;-87
2021/09/27 07:47:26;;;;;;;22.30;8.93;;;17.60;97.30;;;;;;4999490;28;20437;-87
2021/09/27 07:49:52;;;;;;;17.67;9.20;;;17.60;97.30;;;;;;5015559;28;20239;-86
2021/09/27 07:52:18;;;;;;;17.37;8.60;;;17.70;97.30;;;;;;5020609;28;20224;-87
2021/09/27 07:54:43;;;;;;;15.63;7.80;;;17.70;97.30;;;;;;5018185;28;20625;-87
2021/09/27 07:57:09;;;;;;;17.60;7.93;;;17.80;97.30;;;;;;5019882;28;20185;-87
2021/09/27 07:59:35;;;;;;;17.57;7.50;;;17.80;97.30;;;;;;5019592;28;20173;-87
2021/09/27 08:02:00;;;;;;;15.80;7.77;;;17.80;97.30;;;;;;5019525;28;20185;-87
2021/09/27 08:04:26;;;;;;;20.63;7.30;;;17.80;97.30;;;;;;5018359;28;20251;-87
2021/09/27 08:06:51;;;;;;;16.60;7.83;;;17.80;97.30;;;;;;5017705;28;20546;-87
2021/09/27 08:09:17;;;;;;;16.93;7.27;;;17.90;97.30;;;;;;5016328;28;20177;-86
2021/09/27 08:11:43;;;;;;;17.37;8.40;;;17.90;97.30;;;;;;5015109;28;20199;-86
2021/09/27 08:14:13;;;;;;;13.80;7.03;;;18.00;97.30;;;;;;5014914;28;20247;-87
2021/09/27 08:16:39;;;;;;;17.53;8.10;;;18.00;97.30;;;;;;5015779;28;20726;-86
2021/09/27 08:19:06;;;;;;;14.27;7.10;;;18.00;97.30;;;;;;5015232;28;21005;-87
2021/09/27 08:21:32;;;;;;;15.47;7.10;;;18.00;97.30;;;;;;5015297;28;21261;-85
2021/09/27 08:23:57;;;;;;;14.57;6.83;;;18.10;97.30;;;;;;5015533;28;20458;-86
2021/09/27 08:26:23;;;;;;;14.17;7.40;;;18.10;97.30;;;;;;5015154;28;20412;-86
2021/09/27 08:28:49;;;;;;;10.77;5.77;;;18.10;97.30;;;;;;5015280;28;20235;-86
2021/09/27 08:31:19;;;;;;;13.67;6.80;;;18.10;97.30;;;;;;5014572;28;20709;-85
2021/09/27 08:33:48;;;;;;;9.00;5.40;;;18.20;97.30;;;;;;5014834;28;20510;-85
2021/09/27 08:36:15;;;;;;;12.30;6.47;;;18.30;97.30;;;;;;5014430;28;20423;-86
2021/09/27 08:38:43;;;;;;;14.30;6.83;;;18.40;97.30;;;;;;5014432;28;20420;-86
2021/09/27 08:41:32;;;;;;;16.57;7.40;;;18.40;97.30;;;;;;5015222;28;20416;-86
2021/09/27 08:44:05;;;;;;;12.37;7.33;;;18.50;97.30;;;;;;5015401;28;20961;-85
2021/09/27 08:46:36;;;;;;;13.13;6.93;;;18.50;97.30;;;;;;5014937;28;20431;-85
2021/09/27 08:49:17;;;;;;;13.13;6.93;;;18.50;97.30;;;;;;5016375;28;20408;-85
2021/09/27 08:51:44;;;;;;;11.30;6.53;;;18.50;97.30;;;;;;5014814;28;20511;-85
2021/09/27 08:54:18;;;;;;;13.47;7.43;;;18.60;97.30;;;;;;5014610;28;20614;-85
2021/09/27 08:56:59;;;;;;;16.53;7.40;;;18.60;97.30;;;;;;5015036;28;20412;-85
2021/09/27 08:59:45;;;;;;;14.70;7.20;;;18.70;97.30;;;;;;5015354;28;20427;-85
2021/09/27 09:02:41;;;;;;;13.73;6.50;;;18.80;97.30;;;;;;5015400;28;20818;-86
2021/09/27 09:05:10;;;;;;;17.57;7.53;;;18.80;97.30;;;;;;5015263;28;20929;-86
2021/09/27 09:08:05;;;;;;;18.00;8.50;;;18.80;97.30;;;;;;5015637;28;20996;-86
2021/09/27 09:11:00;;;;;;;14.00;7.63;;;18.90;97.30;;;;;;5015656;28;20420;-85
2021/09/27 09:13:36;;;;;;;15.53;8.53;;;18.90;97.30;;;;;;5015850;28;20496;-85
2021/09/27 09:16:05;;;;;;;17.90;7.90;;;18.90;97.30;;;;;;5016562;28;20455;-84
2021/09/27 09:18:55;;;;;;;18.77;8.40;;;18.80;97.30;;;;;;5016398;28;20420;-85
2021/09/27 09:21:52;;;;;;;17.70;9.00;;;18.90;97.30;;;;;;5016671;28;20557;-85
2021/09/27 09:24:23;;;;;;;16.97;8.50;;;18.90;97.30;;;;;;5015971;28;20479;-86
2021/09/27 09:26:53;;;;;;;23.33;11.03;;;19.00;97.30;;;;;;5032628;28;20519;-85
2021/09/27 09:29:22;;;;;;;17.80;8.77;;;19.10;97.30;;;;;;5017159;28;20423;-85
2021/09/27 09:31:52;;;;;;;21.17;9.00;;;19.20;97.30;;;;;;5016017;28;20423;-86
2021/09/27 09:34:18;;;;;;;16.27;8.50;;;19.30;97.30;;;;;;5015733;28;20471;-85
2021/09/27 09:36:48;;;;;;;16.27;8.80;;;19.30;97.30;;;;;;5015680;28;20999;-82
2021/09/27 09:39:23;;;;;;;16.43;8.70;;;19.30;97.30;;;;;;5016601;28;20609;-83
2021/09/27 09:41:53;;;;;;;15.30;9.10;;;19.30;97.30;;;;;;5017062;28;20451;-83
2021/09/27 09:44:42;;;;;;;15.40;8.23;;;19.30;97.30;;;;;;5017395;28;20456;-82
2021/09/27 09:47:12;;;;;;;18.20;8.50;;;19.20;97.30;;;;;;5014957;28;20420;-83
2021/09/27 09:50:06;;;;;;;19.27;9.60;;;19.30;97.30;;;;;;5016540;28;20417;-83
2021/09/27 09:52:49;;;;;;;18.00;8.67;;;19.30;97.30;;;;;;5018022;28;20443;-83
2021/09/27 09:55:33;;;;;;;19.73;9.30;;;19.40;97.30;;;;;;5017305;28;20454;-84
2021/09/27 09:58:12;;;;;;;18.43;9.80;;;19.50;97.30;;;;;;5018328;28;20519;-84
2021/09/27 10:00:50;;;;;;;16.97;8.60;;;19.50;97.30;;;;;;5013293;28;20463;-84
2021/09/27 10:03:34;;;;;;;19.77;9.17;;;19.60;97.30;;;;;;5034728;28;20469;-84
2021/09/27 10:06:28;;;;;;;14.93;8.83;;;19.70;97.30;;;;;;5018369;28;20435;-83
2021/09/27 10:08:57;;;;;;;16.20;9.37;;;19.70;97.30;;;;;;5019724;28;20443;-84
2021/09/27 10:11:30;;;;;;;17.60;9.10;;;19.80;97.30;;;;;;5014001;28;20451;-83
2021/09/27 10:13:56;;;;;;;16.77;9.03;;;19.90;97.30;;;;;;5018451;28;20853;-80
2021/09/27 10:16:27;;;;;;;15.53;8.23;;;19.90;97.30;;;;;;5004639;28;20750;-80
2021/09/27 10:19:11;;;;;;;16.10;8.13;;;19.90;97.30;;;;;;5028067;28;20219;-78
2021/09/27 10:21:37;;;;;;;16.23;9.00;;;20.00;97.30;;;;;;5003323;28;20404;-78
2021/09/27 10:24:19;;;;;;;17.23;9.20;;;20.00;97.30;;;;;;4993750;28;20433;-78
2021/09/27 10:26:53;;;;;;;15.50;8.53;;;20.00;97.30;;;;;;5008140;28;20185;-79
2021/09/27 10:29:24;;;;;;;15.07;8.67;;;20.10;97.30;;;;;;4996898;28;20518;-78
2021/09/27 10:32:22;;;;;;;13.30;8.40;;;20.10;97.30;;;;;;5012049;28;20471;-78
2021/09/27 10:34:47;;;;;;;19.50;9.60;;;20.10;97.30;;;;;;5008017;28;20464;-78
2021/09/27 10:37:19;;;;;;;13.43;7.77;;;20.10;97.30;;;;;;4995284;28;20449;-78
2021/09/27 10:39:49;;;;;;;18.63;9.70;;;20.10;97.30;;;;;;5008180;28;20189;-79
2021/09/27 10:42:19;;;;;;;13.43;7.67;;;20.20;97.30;;;;;;5005881;28;20413;-79
2021/09/27 10:44:50;;;;;;;17.20;8.30;;;20.10;97.30;;;;;;5002034;28;20444;-78
2021/09/27 10:47:28;;;;;;;14.30;8.10;;;20.20;97.30;;;;;;5005961;28;20431;-78
2021/09/27 10:50:12;;;;;;;15.33;9.10;;;20.20;97.30;;;;;;5011400;28;20520;-79
2021/09/27 10:52:50;;;;;;;14.67;8.43;;;20.20;97.30;;;;;;5008274;28;20424;-79
2021/09/27 10:55:34;;;;;;;13.97;7.87;;;20.10;97.30;;;;;;5012175;28;20459;-78
2021/09/27 10:58:06;;;;;;;15.13;8.03;;;20.10;97.30;;;;;;5027353;28;20435;-78
2021/09/27 11:00:35;;;;;;;21.47;9.10;;;20.00;97.30;;;;;;5027281;28;20467;-78
2021/09/27 11:03:22;;;;;;;18.73;9.37;;;20.00;97.30;;;;;;5027876;28;20438;-78
2021/09/27 11:05:57;;;;;;;15.77;10.00;;;20.10;97.30;;;;;;5027890;28;20862;-79
2021/09/27 11:08:48;;;;;;;18.30;9.23;;;20.10;97.30;;;;;;5011486;28;20444;-78
2021/09/27 11:11:30;;;;;;;18.17;8.70;;;20.00;97.30;;;;;;5011087;28;20417;-79
2021/09/27 11:13:58;;;;;;;15.57;8.67;;;20.10;97.30;;;;;;5027277;28;20459;-79
2021/09/27 11:16:35;;;;;;;16.67;9.10;;;20.10;97.30;;;;;;5011183;28;20497;-79
2021/09/27 11:19:26;;;;;;;17.10;8.37;;;20.20;97.30;;;;;;5010539;28;20411;-78
2021/09/27 11:21:52;;;;;;;14.47;8.90;;;20.20;97.30;;;;;;5027637;28;20757;-78
2021/09/27 11:24:18;;;;;;;14.43;8.43;;;20.20;97.30;;;;;;5012213;28;20435;-78
2021/09/27 11:27:05;;;;;;;15.90;8.30;;;20.30;97.30;;;;;;5027179;28;20806;-78
2021/09/27 11:29:37;;;;;;;15.00;8.73;;;20.30;97.30;;;;;;5010308;28;20200;-78
2021/09/27 11:32:31;;;;;;;14.33;8.53;;;20.30;97.30;;;;;;5012552;28;20416;-78
2021/09/27 11:35:07;;;;;;;25.47;8.87;;;20.40;97.30;;;;;;5026842;28;20456;-78
2021/09/27 11:37:41;;;;;;;13.07;7.93;;;20.50;97.30;;;;;;5010895;28;20412;-78
2021/09/27 11:40:06;;;;;;;15.97;8.53;;;20.50;97.30;;;;;;5028015;28;20412;-78
2021/09/27 11:43:06;;;;;;;15.43;8.70;;;20.60;97.30;;;;;;5027723;28;20413;-77
2021/09/27 11:45:33;;;;;;;17.03;9.70;;;20.70;97.30;;;;;;5008188;28;20207;-78
2021/09/27 11:48:06;;;;;;;16.70;8.23;;;20.90;97.30;;;;;;4992035;28;20425;-78
2021/09/27 11:50:35;;;;;;;18.50;9.57;;;21.20;97.30;;;;;;4990747;28;20456;-78
2021/09/27 11:53:16;;;;;;;15.40;9.00;;;21.60;97.30;;;;;;4992160;28;20487;-78
2021/09/27 11:56:07;;;;;;;17.13;9.20;;;21.90;97.30;;;;;;4990407;28;20471;-77
2021/09/27 11:58:41;;;;;;;15.33;9.33;;;22.10;97.30;;;;;;5006919;28;20423;-78
2021/09/27 12:01:38;;;;;;;18.77;9.27;;;22.20;97.30;;;;;;4990434;28;20820;-78
2021/09/27 12:04:38;;;;;;;14.87;9.00;;;22.20;97.30;;;;;;4991424;28;20452;-78
2021/09/27 12:07:09;;;;;;;18.27;8.97;;;22.10;97.30;;;;;;4990722;28;20938;-77
2021/09/27 12:10:18;;;;;;;18.17;9.50;;;21.90;97.30;;;;;;5006535;28;20425;-78
2021/09/27 12:12:55;;;;;;;19.40;9.20;;;21.80;97.30;;;;;;4972365;28;20433;-78
2021/09/27 12:15:26;;;;;;;16.37;10.43;;;21.80;97.30;;;;;;4972826;28;20468;-78
2021/09/27 12:17:52;;;;;;;12.17;8.13;;;21.70;97.30;;;;;;4981298;28;20444;-77
2021/09/27 12:20:23;;;;;;;17.77;10.60;;;21.70;97.30;;;;;;4990277;28;20417;-77
2021/09/27 12:22:56;;;;;;;17.23;8.60;;;21.60;97.30;;;;;;4991861;28;20449;-78
2021/09/27 12:25:31;;;;;;;18.67;10.17;;;21.60;97.30;;;;;;4990727;28;20425;-77
2021/09/27 12:28:05;;;;;;;16.40;9.80;;;21.50;97.30;;;;;;4990247;28;20993;-78
2021/09/27 12:30:38;;;;;;;23.10;10.87;;;21.40;97.30;;;;;;5006758;28;20423;-78
2021/09/27 12:33:16;;;;;;;22.53;11.10;;;21.40;97.30;;;;;;5009614;28;20443;-78
2021/09/27 12:35:47;;;;;;;19.13;10.63;;;21.30;97.30;;;;;;5009775;28;20467;-78
2021/09/27 12:38:18;;;;;;;21.23;10.93;;;21.30;97.30;;;;;;5009785;28;20424;-78
2021/09/27 12:40:53;;;;;;;17.10;8.80;;;21.30;97.30;;;;;;5009500;28;20420;-78
2021/09/27 12:43:21;;;;;;;15.67;9.83;;;21.30;97.30;;;;;;5009324;28;20849;-78
2021/09/27 12:45:48;;;;;;;18.00;9.53;;;21.30;97.30;;;;;;5025526;28;20420;-78
2021/09/27 12:48:23;;;;;;;23.40;9.80;;;21.40;97.30;;;;;;5009419;28;20443;-78
2021/09/27 12:51:00;;;;;;;19.17;8.87;;;21.40;97.30;;;;;;5009482;28;20807;-78
2021/09/27 12:53:43;;;;;;;17.47;9.33;;;21.40;97.30;;;;;;5009229;28;20479;-78
2021/09/27 12:56:10;;;;;;;14.80;9.40;;;21.40;97.30;;;;;;5009559;28;20446;-78
2021/09/27 12:58:39;;;;;;;15.97;9.10;;;21.40;97.30;;;;;;5009137;28;20836;-78
2021/09/27 13:01:19;;;;;;;18.73;10.83;;;21.40;97.30;;;;;;5009054;28;20464;-78
2021/09/27 13:04:04;;;;;;;15.67;9.23;;;21.40;97.30;;;;;;5025648;28;20443;-78
2021/09/27 13:06:36;;;;;;;18.97;9.47;;;21.40;97.30;;;;;;5010709;28;20844;-78
2021/09/27 13:09:24;;;;;;;18.10;10.07;;;21.40;97.30;;;;;;5010413;28;20389;-78
2021/09/27 13:12:13;;;;;;;15.90;10.30;;;21.50;97.30;;;;;;5008729;28;20945;-78
2021/09/27 13:14:44;;;;;;;14.93;9.17;;;21.50;97.30;;;;;;5025276;28;20494;-78
2021/09/27 13:17:17;;;;;;;16.47;9.30;;;21.50;97.30;;;;;;5010104;28;20412;-78
2021/09/27 13:19:50;;;;;;;15.23;9.80;;;21.40;97.30;;;;;;5009136;28;20416;-78
2021/09/27 13:22:43;;;;;;;15.20;10.03;;;21.40;97.30;;;;;;5010390;28;20420;-78
2021/09/27 13:25:20;;;;;;;21.43;9.70;;;21.30;97.30;;;;;;5011806;28;20502;-78
2021/09/27 13:27:52;;;;;;;16.27;9.90;;;21.30;97.30;;;;;;5022503;28;20473;-78
2021/09/27 13:30:29;;;;;;;16.67;9.17;;;21.30;97.30;;;;;;5007112;28;20478;-78